San Angelo, TX

10:03 AM CDT on March 23, 2017 (GMT -0500)
Goodfellow AFB Rec Camp | | Change Station
Active Advisory: Wind Advisory

Elev 1873 ft 31.37 °N, 100.49 °W | Updated 16 seconds ago

Overcast
Overcast
67.8 °F
Feels Like 67.8 °F
N
5.0
Wind Variable Wind from SSW

Today
High -- | Low -- °F
--% Chance of Precip.
Yesterday
High -- | Low -- °F
Precip. -- in
Pressure 29.95 in
Visibility 10.0 miles
Clouds Overcast 2000 ft
Dew Point 57 °F
Humidity 70%
Rainfall 0.00 in
Snow Depth Not available.
7:41 AM 7:55 PM
Waning Crescent, 23% visible
METAR KSJT 231451Z 17017G24KT 10SM OVC020 19/13 A3000 RMK AO2 PK WND 20028/1426 SLP142 T01940128 53012
Pressure 29.95 in
Visibility 10.0 miles
Clouds Overcast 2000 ft
Dew Point 57 °F
Humidity 70%
Rainfall 0.00 in
Snow Depth Not available.
7:41 AM 7:55 PM
Waning Crescent, 23% visible
METAR KSJT 231451Z 17017G24KT 10SM OVC020 19/13 A3000 RMK AO2 PK WND 20028/1426 SLP142 T01940128 53012

Get Your Daily Forecast Email!

Thanks for signing up!

Be on the lookout for a verification email in your inbox.

You'll start receiving severe weather alerts in your inbox..

×

10-Day Weather Forecast

Almanac

Astronomy

Mar. 23, 2017 Rise Set
Actual Time
Civil Twilight
Nautical Twilight
Astronomical Twilight
Moon
Length of Visible Light
Length of Day
Tomorrow will be .
, % of the Moon is Illuminated

Today's Extremes

State Highs State Lows

Community

WunderPhotos

Upload Photos

1,962,540 photos uploaded!

WunderBlog® & News

Nearby

Air Quality

  Air Quality AQ Index Pollutant
Not available.

Snow Depth

Station Depth Elevation

Earthquake Activity

City Distance Mag. Time & Date
Minimum magnitude displayed is 2.5.

Earthquake Activity

City Distance Mag. Time & Date
Minimum magnitude displayed is 2.5.

Coastal Water Temperatures

Place Temperature

Stations

Nearby Weather Stations

Station Location Temp. Windchill Dew Point Humidity Wind Precip. Elev Updated Type
                   

Watches & Warnings

Wind Advisory
Issued: 5:29 AM CDT Mar. 23, 2017 – National Weather Service

... Wind Advisory in effect from 1 PM this afternoon to 1 am CDT
Friday...

The National Weather Service in San Angelo has issued a Wind
Advisory, which is in effect from 1 PM this afternoon to 1 am CDT
Friday.

* Timing... 1 PM today to 1 am tomorrow

* winds... from the south at 20 to 30 mph gusts 40 to 45 mph

* impacts... hazardous driving and boating conditions

Precautionary/preparedness actions...

A Wind Advisory indicates you should expect winds of 35 mph. Winds
speeds in this range will make driving difficult... especially for
high profile vehicles. Also, expect hazardous boating conditions.
Use extra caution.